Time;durP1;ratioP1;P1;durP2;ratioP2;P2;SDS_P1;SDS_P2;PMS_P1;PMS_P2;Temp;Humidity;BMP_temperature;BMP_pressure;BME280_temperature;BME280_humidity;BME280_pressure;Samples;Min_cycle;Max_cycle;Signal;HPM_P1;HPM_P2
2023/11/15 00:00:55;;;;;;;23.55;13.65;;;308.00;2304.00;;;;;;6246285;23;20008;-68
2023/11/15 00:03:20;;;;;;;21.10;14.18;;;332.80;2329.60;;;;;;6246417;23;20027;-67
2023/11/15 00:05:48;;;;;;;23.08;15.75;;;307.90;2304.00;;;;;;6218664;23;20000;-67
2023/11/15 00:08:14;;;;;;;18.40;10.88;;;;;;;;;;6245707;23;20007;-67
2023/11/15 00:10:40;;;;;;;18.10;11.82;;;308.00;2304.00;;;;;;6245924;23;20000;-69
2023/11/15 00:13:07;;;;;;;19.75;11.32;;;307.90;2304.00;;;;;;6245036;23;20004;-68
2023/11/15 00:15:33;;;;;;;17.27;11.02;;;307.80;2304.00;;;;;;6245917;23;20501;-65
2023/11/15 00:18:04;;;;;;;17.27;10.27;;;307.80;2304.00;;;;;;6245700;23;20024;-66
2023/11/15 00:20:37;;;;;;;17.75;11.55;;;307.80;2304.00;;;;;;6243746;23;20001;-66
2023/11/15 00:23:03;;;;;;;19.88;12.60;;;307.80;2304.00;;;;;;6244836;23;20015;-68
2023/11/15 00:25:31;;;;;;;18.65;10.82;;;307.80;2304.00;;;;;;6244733;23;20004;-67
2023/11/15 00:27:57;;;;;;;22.05;11.00;;;307.70;2304.00;;;;;;6244608;23;20459;-67
2023/11/15 00:30:23;;;;;;;20.90;11.10;;;307.50;2304.00;;;;;;6245780;23;20032;-67
2023/11/15 00:32:50;;;;;;;20.38;11.07;;;307.50;2304.00;;;;;;6244650;23;20001;-69
2023/11/15 00:35:16;;;;;;;18.95;11.27;;;307.50;2304.00;;;;;;6244460;23;20440;-68
2023/11/15 00:37:42;;;;;;;21.25;10.93;;;307.30;2304.00;;;;;;6245811;23;20417;-67
2023/11/15 00:40:14;;;;;;;19.30;10.40;;;307.40;2304.00;;;;;;6245231;23;20360;-67
2023/11/15 00:42:41;;;;;;;17.50;10.23;;;307.50;2304.00;;;;;;6245588;23;20058;-68
2023/11/15 00:45:08;;;;;;;17.52;10.43;;;307.60;2304.00;;;;;;6245480;23;20053;-66
2023/11/15 00:47:37;;;;;;;20.23;11.00;;;307.40;2304.00;;;;;;6245324;23;20140;-66
2023/11/15 00:50:04;;;;;;;17.50;10.85;;;307.50;2304.00;;;;;;6243992;23;20010;-72
2023/11/15 00:52:30;;;;;;;18.17;11.05;;;307.60;2304.00;;;;;;6244218;23;20000;-68
2023/11/15 00:54:56;;;;;;;15.75;10.23;;;307.70;2304.00;;;;;;6244728;23;20057;-68
2023/11/15 00:57:22;;;;;;;18.85;11.30;;;307.70;2304.00;;;;;;6245277;23;20429;-68
2023/11/15 00:59:53;;;;;;;17.60;11.40;;;307.70;2304.00;;;;;;6245140;23;20134;-68
2023/11/15 01:02:19;;;;;;;19.20;11.38;;;307.60;2304.00;;;;;;6245306;23;20047;-67
2023/11/15 01:04:46;;;;;;;20.73;12.50;;;307.60;2304.00;;;;;;6243872;23;20027;-67
2023/11/15 01:07:12;;;;;;;21.77;12.48;;;307.60;2304.00;;;;;;6244755;23;20053;-71
2023/11/15 01:09:38;;;;;;;19.92;11.63;;;307.60;2304.00;;;;;;6244490;23;20316;-65
2023/11/15 01:12:04;;;;;;;19.60;12.02;;;307.50;2304.00;;;;;;6244771;23;20004;-68
2023/11/15 01:14:30;;;;;;;20.63;11.32;;;307.60;2304.00;;;;;;6244493;23;20000;-65
2023/11/15 01:16:56;;;;;;;20.58;11.63;;;307.50;2304.00;;;;;;6244619;23;20000;-66
2023/11/15 01:19:21;;;;;;;20.95;11.20;;;307.50;2304.00;;;;;;6244783;23;20011;-67
2023/11/15 01:21:47;;;;;;;19.70;11.15;;;307.40;2304.00;;;;;;6216759;23;20341;-66
2023/11/15 01:24:13;;;;;;;20.60;11.02;;;307.20;2304.00;;;;;;6243592;23;20000;-69
2023/11/15 01:26:38;;;;;;;20.63;11.07;;;282.50;2278.40;;;;;;6243143;23;20543;-68
2023/11/15 01:29:04;;;;;;;16.58;10.57;;;282.40;2278.40;;;;;;6245115;23;20468;-65
2023/11/15 01:31:30;;;;;;;20.52;11.25;;;282.30;2278.40;;;;;;6243552;23;20433;-68
2023/11/15 01:33:55;;;;;;;41.22;22.95;;;282.30;2278.40;;;;;;6244807;23;20003;-68
2023/11/15 01:36:21;;;;;;;52.35;28.95;;;282.50;2278.40;;;;;;6243370;23;20000;-68
2023/11/15 01:38:47;;;;;;;35.67;18.95;;;282.40;2278.40;;;;;;6245141;23;20417;-66
2023/11/15 01:41:12;;;;;;;43.83;23.90;;;282.40;2278.40;;;;;;6243450;23;20083;-66
2023/11/15 01:43:39;;;;;;;34.83;19.02;;;282.40;2278.40;;;;;;6244417;23;20004;-67
2023/11/15 01:46:06;;;;;;;30.50;16.27;;;282.50;2278.40;;;;;;6244919;23;20333;-65
2023/11/15 01:48:32;;;;;;;39.25;18.02;;;282.40;2278.40;;;;;;6245400;23;20004;-68
2023/11/15 01:50:59;;;;;;;28.58;14.63;;;282.40;2278.40;;;;;;6245172;23;20451;-68
2023/11/15 01:53:25;;;;;;;27.67;13.48;;;282.30;2278.40;;;;;;6244426;23;20003;-69
2023/11/15 01:55:52;;;;;;;26.75;13.98;;;282.20;2278.40;;;;;;6244624;23;20451;-67
2023/11/15 01:58:19;;;;;;;26.42;14.32;;;282.30;2278.40;;;;;;6244794;23;20052;-71
2023/11/15 02:00:45;;;;;;;27.52;14.60;;;282.30;2278.40;;;;;;6244020;23;20000;-68
2023/11/15 02:03:11;;;;;;;27.13;14.30;;;282.30;2278.40;;;;;;6245966;23;20050;-67
2023/11/15 02:05:38;;;;;;;31.60;16.77;;;282.30;2278.40;;;;;;6244156;23;20074;-69
2023/11/15 02:08:04;;;;;;;29.00;15.30;;;282.30;2278.40;;;;;;6244821;23;20000;-67
2023/11/15 02:10:30;;;;;;;27.88;15.10;;;282.40;2278.40;;;;;;6244889;23;20054;-68
2023/11/15 02:12:56;;;;;;;29.75;15.95;;;282.30;2278.40;;;;;;6244815;23;20076;-68
2023/11/15 02:15:22;;;;;;;28.55;15.30;;;282.30;2278.40;;;;;;6243119;23;20000;-70
2023/11/15 02:17:48;;;;;;;30.13;16.50;;;282.40;2278.40;;;;;;6244718;23;20008;-67
2023/11/15 02:20:22;;;;;;;32.40;18.95;;;282.50;2278.40;;;;;;6245251;23;20000;-66
2023/11/15 02:22:50;;;;;;;28.98;17.13;;;307.20;2304.00;;;;;;6245961;23;20099;-68
2023/11/15 02:25:17;;;;;;;30.27;16.73;;;307.30;2304.00;;;;;;6245818;23;20004;-70
2023/11/15 02:27:43;;;;;;;32.20;17.17;;;307.30;2304.00;;;;;;6245366;23;20000;-66
2023/11/15 02:30:10;;;;;;;30.42;17.63;;;307.40;2304.00;;;;;;6245328;23;20372;-68
2023/11/15 02:32:41;;;;;;;32.92;17.92;;;307.40;2304.00;;;;;;6244765;23;20416;-67
2023/11/15 02:35:08;;;;;;;32.03;18.48;;;307.50;2304.00;;;;;;6245013;23;20008;-67
2023/11/15 02:37:35;;;;;;;31.80;18.30;;;307.50;2304.00;;;;;;6246494;23;20050;-70
2023/11/15 02:40:04;;;;;;;28.05;16.17;;;307.50;2304.00;;;;;;6247481;23;20008;-69
2023/11/15 02:42:32;;;;;;;24.92;14.95;;;307.50;2304.00;;;;;;6247581;23;20012;-68
2023/11/15 02:45:01;;;;;;;27.05;15.75;;;307.60;2304.00;;;;;;6247464;23;20421;-67
2023/11/15 02:47:27;;;;;;;27.65;15.85;;;307.70;2304.00;;;;;;6247428;23;20075;-68
2023/11/15 02:49:53;;;;;;;27.63;15.85;;;307.70;2304.00;;;;;;6246628;23;20506;-72
2023/11/15 02:52:19;;;;;;;23.15;12.55;;;307.90;2304.00;;;;;;6246474;23;20004;-66
2023/11/15 02:54:46;;;;;;;21.52;13.38;;;307.90;2304.00;;;;;;6247545;23;20011;-66
2023/11/15 02:57:13;;;;;;;17.08;10.40;;;308.10;2304.00;;;;;;6246464;23;20003;-69
2023/11/15 02:59:38;;;;;;;14.85;9.30;;;332.80;2329.60;;;;;;6247408;23;20057;-68
2023/11/15 03:02:04;;;;;;;13.57;8.05;;;308.10;2304.00;;;;;;6219503;23;20019;-71
2023/11/15 03:04:30;;;;;;;12.65;7.82;;;332.80;2329.60;;;;;;6246492;23;20007;-67
2023/11/15 03:06:56;;;;;;;11.65;7.45;;;332.80;2329.60;;;;;;6247289;23;20007;-67
2023/11/15 03:09:21;;;;;;;11.85;7.25;;;332.80;2329.60;;;;;;6246733;23;20008;-68
2023/11/15 03:11:47;;;;;;;10.75;6.80;;;332.90;2329.60;;;;;;6246993;23;20004;-68
2023/11/15 03:14:13;;;;;;;10.55;5.90;;;332.90;2329.60;;;;;;6245723;23;20000;-72
2023/11/15 03:16:40;;;;;;;8.90;5.80;;;332.90;2329.60;;;;;;6247294;23;20079;-68
2023/11/15 03:19:07;;;;;;;12.07;5.82;;;333.00;2329.60;;;;;;6247262;23;19997;-68
2023/11/15 03:21:33;;;;;;;10.30;6.18;;;333.00;2329.60;;;;;;6246486;23;20028;-69
2023/11/15 03:23:59;;;;;;;8.30;5.20;;;333.00;2329.60;;;;;;6246818;23;20360;-67
2023/11/15 03:26:24;;;;;;;7.90;4.70;;;333.00;2329.60;;;;;;6246809;23;20337;-69
2023/11/15 03:28:50;;;;;;;6.57;4.63;;;333.10;2329.60;;;;;;6246769;23;20042;-68
2023/11/15 03:31:16;;;;;;;6.18;4.15;;;333.10;2329.60;;;;;;6245559;23;20445;-69
2023/11/15 03:33:48;;;;;;;6.43;4.15;;;333.10;2329.60;;;;;;6219629;23;20083;-66
2023/11/15 03:36:15;;;;;;;8.18;4.78;;;333.10;2329.60;;;;;;6246081;23;20031;-67
2023/11/15 03:38:41;;;;;;;7.40;5.05;;;333.10;2329.60;;;;;;6245903;23;20060;-66
2023/11/15 03:41:09;;;;;;;7.90;5.00;;;333.10;2329.60;;;;;;6246154;23;19996;-67
2023/11/15 03:43:39;;;;;;;8.25;4.53;;;333.10;2329.60;;;;;;6246265;23;20000;-67
2023/11/15 03:46:05;;;;;;;7.70;4.60;;;333.10;2329.60;;;;;;6247083;23;19996;-68
2023/11/15 03:48:30;;;;;;;5.80;3.92;;;333.10;2329.60;;;;;;6245737;23;20028;-68
2023/11/15 03:50:56;;;;;;;6.93;4.28;;;333.10;2329.60;;;;;;6245711;23;20003;-66
2023/11/15 03:53:22;;;;;;;6.95;4.47;;;333.10;2329.60;;;;;;6246608;23;20008;-68
2023/11/15 03:55:49;;;;;;;8.23;4.68;;;333.10;2329.60;;;;;;6245783;23;19996;-66
2023/11/15 03:58:17;;;;;;;7.05;4.55;;;333.10;2329.60;;;;;;6246249;23;20019;-69
2023/11/15 04:00:43;;;;;;;7.97;5.05;;;333.10;2329.60;;;;;;6246428;23;20004;-68
2023/11/15 04:03:08;;;;;;;9.48;6.53;;;333.20;2329.60;;;;;;6246783;23;20007;-67
2023/11/15 04:05:34;;;;;;;9.45;6.65;;;333.20;2329.60;;;;;;6245805;23;20329;-68
2023/11/15 04:08:03;;;;;;;10.27;5.90;;;333.30;2329.60;;;;;;6245808;23;20004;-70
2023/11/15 04:10:29;;;;;;;11.68;7.75;;;333.20;2329.60;;;;;;6246066;23;20429;-69
2023/11/15 04:12:54;;;;;;;11.65;8.00;;;333.20;2329.60;;;;;;6246477;23;20004;-67
2023/11/15 04:15:22;;;;;;;10.75;7.32;;;333.20;2329.60;;;;;;6246657;23;19996;-68
2023/11/15 04:17:48;;;;;;;10.02;6.30;;;333.20;2329.60;;;;;;6246407;23;20426;-69
2023/11/15 04:20:14;;;;;;;8.80;5.90;;;333.20;2329.60;;;;;;6245726;23;20000;-68
2023/11/15 04:22:39;;;;;;;9.43;6.25;;;333.20;2329.60;;;;;;6246871;23;20093;-67
2023/11/15 04:25:05;;;;;;;9.38;6.57;;;333.20;2329.60;;;;;;6245895;23;20007;-72
2023/11/15 04:27:31;;;;;;;9.80;6.70;;;333.20;2329.60;;;;;;6246729;23;20042;-67
2023/11/15 04:29:57;;;;;;;11.52;7.43;;;333.10;2329.60;;;;;;6245732;23;20001;-69
2023/11/15 04:32:24;;;;;;;11.10;7.78;;;333.20;2329.60;;;;;;6246333;23;20030;-67
2023/11/15 04:34:49;;;;;;;11.73;7.97;;;333.10;2329.60;;;;;;6246103;23;20000;-69
2023/11/15 04:37:16;;;;;;;12.52;8.68;;;333.20;2329.60;;;;;;6245749;23;20011;-70
2023/11/15 04:39:43;;;;;;;12.85;8.07;;;333.10;2329.60;;;;;;6246025;23;20007;-67
2023/11/15 04:42:10;;;;;;;14.18;8.85;;;333.10;2329.60;;;;;;6245440;23;20008;-71
2023/11/15 04:44:36;;;;;;;15.52;9.50;;;333.10;2329.60;;;;;;6245986;23;20321;-71
2023/11/15 04:47:03;;;;;;;14.18;8.90;;;333.10;2329.60;;;;;;6246359;23;20083;-67
2023/11/15 04:49:29;;;;;;;18.02;10.55;;;333.10;2329.60;;;;;;6245968;23;20000;-65
2023/11/15 04:51:55;;;;;;;17.55;11.75;;;333.00;2329.60;;;;;;6245827;23;20011;-67
2023/11/15 04:54:20;;;;;;;20.27;11.95;;;332.80;2329.60;;;;;;6245605;23;20318;-66
2023/11/15 04:56:46;;;;;;;20.13;12.35;;;308.10;2304.00;;;;;;6246472;23;20008;-65
2023/11/15 04:59:12;;;;;;;20.77;12.30;;;308.00;2304.00;;;;;;6246001;23;20004;-66
2023/11/15 05:01:41;;;;;;;20.70;12.15;;;308.00;2304.00;;;;;;6245150;23;20094;-68
2023/11/15 05:04:07;;;;;;;20.77;12.80;;;308.00;2304.00;;;;;;6246172;23;20050;-69
2023/11/15 05:06:33;;;;;;;19.30;12.15;;;308.00;2304.00;;;;;;6245281;23;20016;-67
2023/11/15 05:08:59;;;;;;;17.40;11.20;;;308.00;2304.00;;;;;;6245536;23;20023;-68
2023/11/15 05:11:25;;;;;;;17.40;10.55;;;308.00;2304.00;;;;;;6245389;23;20004;-67
2023/11/15 05:13:51;;;;;;;18.02;11.60;;;307.90;2304.00;;;;;;6245517;23;20001;-69
2023/11/15 05:16:18;;;;;;;20.10;12.48;;;307.90;2304.00;;;;;;6244796;23;20054;-68
2023/11/15 05:18:43;;;;;;;18.35;11.43;;;308.00;2304.00;;;;;;6245487;23;20373;-68
2023/11/15 05:21:09;;;;;;;20.88;12.38;;;307.90;2304.00;;;;;;6245145;23;20127;-68
2023/11/15 05:23:35;;;;;;;43.88;25.17;;;308.00;2304.00;;;;;;6245750;23;19996;-69
2023/11/15 05:26:01;;;;;;;49.53;29.10;;;307.90;2304.00;;;;;;6245481;23;20054;-69
2023/11/15 05:28:27;;;;;;;25.58;14.90;;;308.00;2304.00;;;;;;6245874;23;20012;-66
2023/11/15 05:30:52;;;;;;;19.48;12.68;;;308.00;2304.00;;;;;;6245723;23;20318;-65
2023/11/15 05:33:18;;;;;;;16.60;10.07;;;308.00;2304.00;;;;;;6245079;23;20011;-70
2023/11/15 05:35:45;;;;;;;11.98;8.10;;;308.00;2304.00;;;;;;6244993;23;20088;-68
2023/11/15 05:38:10;;;;;;;12.93;8.50;;;308.00;2304.00;;;;;;6245375;23;20038;-69
2023/11/15 05:40:36;;;;;;;14.25;8.50;;;308.00;2304.00;;;;;;6246116;23;20691;-68
2023/11/15 05:43:01;;;;;;;13.85;9.05;;;333.20;2329.60;;;;;;6244115;23;20360;-66
2023/11/15 05:45:27;;;;;;;16.35;11.00;;;308.00;2304.00;;;;;;6244994;23;20004;-66
2023/11/15 05:47:55;;;;;;;15.85;10.95;;;308.00;2304.00;;;;;;6245382;23;19996;-66
2023/11/15 05:50:24;;;;;;;19.60;11.45;;;308.00;2304.00;;;;;;6244356;23;20010;-69
2023/11/15 05:52:52;;;;;;;15.43;10.75;;;308.00;2304.00;;;;;;6244759;23;20035;-64
2023/11/15 05:55:18;;;;;;;14.45;9.50;;;308.00;2304.00;;;;;;6245433;23;20069;-65
2023/11/15 05:57:45;;;;;;;11.50;8.13;;;308.00;2304.00;;;;;;6243335;23;19996;-68
2023/11/15 06:00:18;;;;;;;14.18;9.27;;;307.90;2304.00;;;;;;6244767;23;20008;-64
2023/11/15 06:02:45;;;;;;;12.48;8.48;;;307.90;2304.00;;;;;;6245654;23;20341;-64
2023/11/15 06:05:11;;;;;;;12.70;8.60;;;307.90;2304.00;;;;;;6245127;23;20062;-65
2023/11/15 06:07:37;;;;;;;13.52;8.70;;;307.80;2304.00;;;;;;6244900;23;20413;-68
2023/11/15 06:10:03;;;;;;;14.23;8.90;;;307.80;2304.00;;;;;;6245460;23;20055;-66
2023/11/15 06:12:28;;;;;;;14.38;9.80;;;307.70;2304.00;;;;;;6245185;23;20007;-67
2023/11/15 06:14:54;;;;;;;193.75;77.97;;;307.70;2304.00;;;;;;6247129;23;20011;-66
2023/11/15 06:17:20;;;;;;;629.33;323.08;;;307.70;2304.00;;;;;;6246083;23;20054;-69
2023/11/15 06:19:46;;;;;;;476.02;251.82;;;307.70;2304.00;;;;;;6245797;23;20000;-68
2023/11/15 06:22:11;;;;;;;212.80;121.70;;;307.70;2304.00;;;;;;6246455;23;20023;-70
2023/11/15 06:24:42;;;;;;;62.58;39.30;;;307.70;2304.00;;;;;;6245792;23;20000;-69
2023/11/15 06:27:08;;;;;;;142.73;80.28;;;307.70;2304.00;;;;;;6246040;23;20010;-66
2023/11/15 06:29:34;;;;;;;137.80;79.78;;;307.70;2304.00;;;;;;6247515;23;20071;-68
2023/11/15 06:31:59;;;;;;;97.57;60.05;;;307.70;2304.00;;;;;;6246355;23;20016;-68
2023/11/15 06:34:25;;;;;;;54.85;35.53;;;307.80;2304.00;;;;;;6245893;23;20004;-72
2023/11/15 06:36:55;;;;;;;31.55;21.73;;;307.80;2304.00;;;;;;6246734;23;20008;-68
2023/11/15 06:39:21;;;;;;;28.75;19.63;;;307.90;2304.00;;;;;;6247338;23;20000;-68
2023/11/15 06:41:47;;;;;;;27.67;17.42;;;307.90;2304.00;;;;;;6246572;23;20417;-69
2023/11/15 06:44:13;;;;;;;30.38;17.92;;;307.90;2304.00;;;;;;6246895;23;20058;-66
2023/11/15 06:46:38;;;;;;;31.73;18.05;;;307.80;2304.00;;;;;;6245249;23;20012;-67
2023/11/15 06:49:06;;;;;;;35.10;19.60;;;307.80;2304.00;;;;;;6244335;23;20011;-68
2023/11/15 06:51:31;;;;;;;41.30;22.52;;;307.90;2304.00;;;;;;6244593;23;19997;-69
2023/11/15 06:53:57;;;;;;;65.55;33.78;;;307.80;2304.00;;;;;;6218949;23;20000;-73
2023/11/15 06:56:23;;;;;;;75.30;36.83;;;307.80;2304.00;;;;;;6246389;23;20001;-67
2023/11/15 06:58:48;;;;;;;66.15;33.17;;;307.90;2304.00;;;;;;6246095;23;20000;-70
2023/11/15 07:01:17;;;;;;;46.42;26.90;;;307.90;2304.00;;;;;;6247036;23;20004;-67
2023/11/15 07:03:46;;;;;;;58.13;29.65;;;307.90;2304.00;;;;;;6247248;23;20449;-67
2023/11/15 07:06:13;;;;;;;34.95;21.92;;;307.90;2304.00;;;;;;6246168;23;20004;-67
2023/11/15 07:08:39;;;;;;;40.70;25.75;;;307.90;2304.00;;;;;;6246224;23;20004;-74
2023/11/15 07:11:07;;;;;;;246.75;121.18;;;307.90;2304.00;;;;;;6246922;23;19997;-71
2023/11/15 07:13:34;;;;;;;132.68;76.32;;;307.90;2304.00;;;;;;6246481;23;20011;-66
2023/11/15 07:16:02;;;;;;;82.20;57.13;;;307.90;2304.00;;;;;;6246867;23;20500;-68
2023/11/15 07:18:33;;;;;;;86.07;61.47;;;307.90;2304.00;;;;;;6245914;23;20000;-65
2023/11/15 07:20:59;;;;;;;73.82;48.20;;;307.80;2304.00;;;;;;6240609;23;20000;-68
2023/11/15 07:23:26;;;;;;;56.00;39.08;;;307.80;2304.00;;;;;;6245850;23;20000;-63
2023/11/15 07:25:55;;;;;;;82.05;52.20;;;307.70;2304.00;;;;;;6246165;23;19996;-62
2023/11/15 07:28:22;;;;;;;46.97;32.67;;;307.80;2304.00;;;;;;6246538;23;20456;-63
2023/11/15 07:30:50;;;;;;;46.67;31.83;;;307.70;2304.00;;;;;;6245467;23;20040;-61
2023/11/15 07:33:22;;;;;;;47.72;33.35;;;307.70;2304.00;;;;;;6246217;23;20741;-63
2023/11/15 07:35:51;;;;;;;59.08;41.90;;;307.80;2304.00;;;;;;6246261;23;20004;-63
2023/11/15 07:38:16;;;;;;;71.85;47.97;;;307.90;2304.00;;;;;;6246881;23;19996;-63
2023/11/15 07:40:42;;;;;;;45.45;30.05;;;308.00;2304.00;;;;;;6245949;23;20065;-62
2023/11/15 07:43:10;;;;;;;44.28;29.65;;;308.00;2304.00;;;;;;6246139;23;20424;-61
2023/11/15 07:45:38;;;;;;;107.97;64.45;;;308.00;2304.00;;;;;;6245960;23;20000;-61
2023/11/15 07:48:04;;;;;;;62.13;38.97;;;332.80;2329.60;;;;;;6246305;23;20375;-62
2023/11/15 07:50:33;;;;;;;37.40;26.52;;;332.80;2329.60;;;;;;6245377;23;20023;-60
2023/11/15 07:52:59;;;;;;;60.78;38.58;;;332.90;2329.60;;;;;;6245700;23;20011;-64
2023/11/15 07:55:25;;;;;;;58.75;41.47;;;332.90;2329.60;;;;;;6245891;23;20000;-62
2023/11/15 07:57:51;;;;;;;26.85;19.70;;;332.90;2329.60;;;;;;6245874;23;20030;-62
2023/11/15 08:00:22;;;;;;;21.85;16.35;;;333.00;2329.60;;;;;;6245809;23;20072;-65
2023/11/15 08:02:51;;;;;;;20.67;13.32;;;333.00;2329.60;;;;;;6246029;23;20012;-63
2023/11/15 08:05:17;;;;;;;42.92;26.88;;;333.00;2329.60;;;;;;6245403;23;20000;-63
2023/11/15 08:07:42;;;;;;;31.60;18.73;;;333.00;2329.60;;;;;;6245806;23;20108;-62
2023/11/15 08:10:13;;;;;;;21.00;13.43;;;332.90;2329.60;;;;;;6245829;23;20028;-63
2023/11/15 08:12:39;;;;;;;112.45;52.58;;;332.80;2329.60;;;;;;6245589;23;20421;-63
2023/11/15 08:15:06;;;;;;;156.77;56.58;;;333.10;2329.60;;;;;;6245944;23;20023;-61
2023/11/15 08:17:34;;;;;;;122.05;60.90;;;333.10;2329.60;;;;;;6245541;23;20011;-62
2023/11/15 08:20:00;;;;;;;45.45;25.25;;;333.10;2329.60;;;;;;6246408;23;20349;-61
2023/11/15 08:22:25;;;;;;;55.53;35.75;;;333.20;2329.60;;;;;;6245054;23;20066;-62
2023/11/15 08:24:51;;;;;;;29.58;17.35;;;333.30;2329.60;;;;;;6245554;23;20011;-63
2023/11/15 08:27:17;;;;;;;34.97;19.05;;;333.30;2329.60;;;;;;6245525;23;20413;-70
2023/11/15 08:29:43;;;;;;;44.17;21.25;;;333.40;2329.60;;;;;;6245917;23;20007;-63
2023/11/15 08:32:11;;;;;;;77.55;44.30;;;333.60;2329.60;;;;;;6245375;23;20020;-61
2023/11/15 08:34:37;;;;;;;82.47;36.15;;;333.70;2329.60;;;;;;6246026;23;20011;-63
2023/11/15 08:37:04;;;;;;;39.92;22.60;;;358.40;2329.60;;;;;;6245187;23;20012;-62
2023/11/15 08:39:33;;;;;;;52.53;24.75;;;358.70;2329.60;;;;;;6245121;23;20008;-62
2023/11/15 08:41:59;;;;;;;72.88;30.33;;;358.70;2329.60;;;;;;6245966;23;20012;-62
2023/11/15 08:44:25;;;;;;;22.75;15.65;;;358.70;2329.60;;;;;;6245876;23;20030;-63
2023/11/15 08:46:51;;;;;;;53.83;25.75;;;358.90;2329.60;;;;;;6245508;23;20008;-63
2023/11/15 08:49:17;;;;;;;31.60;17.83;;;358.90;2329.60;;;;;;6245409;23;20007;-62
2023/11/15 08:51:50;;;;;;;27.40;17.52;;;358.80;2329.60;;;;;;6240840;23;20008;-62
2023/11/15 08:54:16;;;;;;;22.75;15.73;;;358.80;2329.60;;;;;;6245813;23;20004;-63
2023/11/15 08:56:41;;;;;;;19.67;14.18;;;358.70;2329.60;;;;;;6244335;23;20353;-63
2023/11/15 08:59:13;;;;;;;16.20;9.85;;;358.40;2329.60;;;;;;6245286;23;19996;-62
2023/11/15 09:01:41;;;;;;;69.57;42.50;;;358.40;2329.60;;;;;;6245056;23;20004;-62
2023/11/15 09:04:07;;;;;;;54.10;34.28;;;358.40;2329.60;;;;;;6245298;23;20433;-62
2023/11/15 09:06:32;;;;;;;19.63;13.02;;;358.50;2329.60;;;;;;6245157;23;20006;-63
2023/11/15 09:08:58;;;;;;;96.28;58.50;;;358.50;2329.60;;;;;;6244836;23;20011;-67
2023/11/15 09:11:24;;;;;;;20.70;12.35;;;358.40;2329.60;;;;;;6239614;23;20456;-68
2023/11/15 09:13:50;;;;;;;26.77;17.70;;;358.40;2329.60;;;;;;6236320;23;20328;-67
2023/11/15 09:16:19;;;;;;;28.25;15.65;;;358.50;2329.60;;;;;;6229974;23;20054;-67
2023/11/15 09:18:45;;;;;;;30.73;19.33;;;358.40;2329.60;;;;;;6244633;23;20061;-66
2023/11/15 09:21:12;;;;;;;26.02;15.82;;;358.50;2329.60;;;;;;6244826;23;20004;-63
2023/11/15 09:23:38;;;;;;;48.47;29.20;;;358.70;2329.60;;;;;;6245138;23;20027;-63
2023/11/15 09:26:04;;;;;;;36.88;22.00;;;358.70;2329.60;;;;;;6244951;23;20000;-61
2023/11/15 09:28:30;;;;;;;36.08;30.35;;;358.80;2329.60;;;;;;6244972;23;20003;-60
2023/11/15 09:30:56;;;;;;;30.98;25.92;;;358.80;2329.60;;;;;;6244479;23;20015;-63
2023/11/15 09:33:26;;;;;;;26.75;18.38;;;358.90;2329.60;;;;;;6245338;23;20004;-63
2023/11/15 09:35:52;;;;;;;28.52;18.42;;;358.80;2329.60;;;;;;6245420;23;20337;-63
2023/11/15 09:38:18;;;;;;;27.55;18.40;;;358.90;2329.60;;;;;;6245091;23;19997;-62
2023/11/15 09:40:48;;;;;;;25.45;14.90;;;358.90;2329.60;;;;;;6244703;23;20011;-62
2023/11/15 09:43:14;;;;;;;20.05;13.25;;;359.00;2329.60;;;;;;6244964;23;20505;-62
2023/11/15 09:45:43;;;;;;;23.75;15.90;;;359.10;2329.60;;;;;;6245099;23;20067;-61
2023/11/15 09:48:11;;;;;;;24.08;16.23;;;384.00;2329.60;;;;;;6247849;23;20019;-63
2023/11/15 09:50:37;;;;;;;24.88;15.68;;;;;;;;;;6247159;23;20076;-63
2023/11/15 09:53:05;;;;;;;15.30;10.73;;;;;;;;;;6246513;23;20000;-62
2023/11/15 09:55:33;;;;;;;20.90;13.90;;;410.10;2355.20;;;;;;6247671;23;20325;-62
2023/11/15 09:58:03;;;;;;;21.95;12.68;;;410.30;2355.20;;;;;;6247243;23;20004;-62
2023/11/15 10:00:32;;;;;;;29.83;18.15;;;409.90;2355.20;;;;;;6246780;23;20000;-62
2023/11/15 10:03:01;;;;;;;21.27;12.73;;;409.90;2355.20;;;;;;6247038;23;20329;-63
2023/11/15 10:05:27;;;;;;;21.58;13.77;;;;;;;;;;6247616;23;20024;-63
2023/11/15 10:08:08;;;;;;;12.73;8.77;;;;;;;;;;6246380;23;20008;-63
2023/11/15 10:10:34;;;;;;;14.57;10.18;;;;;;;;;;6247376;23;20000;-63
2023/11/15 10:13:00;;;;;;;39.33;21.55;;;;;;;;;;6246943;23;20000;-62
2023/11/15 10:15:33;;;;;;;21.38;14.18;;;;;;;;;;6247108;23;20019;-63
2023/11/15 10:18:00;;;;;;;16.48;11.45;;;;;;;;;;6247107;23;19996;-63
2023/11/15 10:20:26;;;;;;;15.45;10.45;;;;;;;;;;6247274;23;20015;-62
2023/11/15 10:22:53;;;;;;;17.85;12.25;;;;;;;;;;6246993;23;20063;-62
2023/11/15 10:25:20;;;;;;;17.55;11.98;;;486.70;2380.80;;;;;;6246466;23;20019;-62
2023/11/15 10:27:47;;;;;;;31.30;16.55;;;486.40;2380.80;;;;;;6247280;23;20444;-61
2023/11/15 10:30:16;;;;;;;12.90;9.40;;;461.20;2380.80;;;;;;6246763;23;20514;-62
2023/11/15 10:32:44;;;;;;;19.88;12.60;;;461.00;2380.80;;;;;;6247283;23;20340;-62
2023/11/15 10:35:10;;;;;;;28.35;18.75;;;461.00;2380.80;;;;;;6245569;23;20302;-60
2023/11/15 10:37:51;;;;;;;37.67;23.27;;;460.80;2380.80;;;;;;6246785;23;20008;-62
2023/11/15 10:40:21;;;;;;;19.30;12.63;;;436.00;2355.20;;;;;;6246454;23;20434;-62
2023/11/15 10:42:51;;;;;;;20.92;12.90;;;435.70;2355.20;;;;;;6246246;23;20337;-61
2023/11/15 10:45:19;;;;;;;35.15;22.23;;;435.50;2355.20;;;;;;6242095;23;20832;-65
2023/11/15 10:48:12;;;;;;;19.20;11.77;;;435.70;2355.20;;;;;;6245231;23;20373;-63
2023/11/15 10:50:53;;;;;;;25.65;17.08;;;436.10;2355.20;;;;;;6240126;23;20008;-62
2023/11/15 10:53:19;;;;;;;19.90;14.45;;;436.10;2355.20;;;;;;6245937;23;20012;-62
2023/11/15 10:55:46;;;;;;;16.27;10.75;;;461.60;2380.80;;;;;;6246561;23;20405;-61
2023/11/15 10:58:16;;;;;;;17.55;12.25;;;461.50;2380.80;;;;;;6245803;23;20023;-62
2023/11/15 11:00:47;;;;;;;8.70;6.85;;;486.40;2380.80;;;;;;6244426;23;19996;-62
2023/11/15 11:03:13;;;;;;;17.92;12.93;;;461.50;2380.80;;;;;;6245159;23;20413;-62
2023/11/15 11:05:57;;;;;;;19.17;14.38;;;461.70;2380.80;;;;;;6245051;23;20006;-62
2023/11/15 11:08:54;;;;;;;12.65;8.10;;;486.40;2380.80;;;;;;6245231;23;20004;-62
2023/11/15 11:11:40;;;;;;;12.90;9.38;;;461.50;2380.80;;;;;;6094078;23;20491;-62
2023/11/15 11:14:20;;;;;;;14.65;7.00;;;461.30;2380.80;;;;;;6093256;23;20038;-62
2023/11/15 11:16:49;;;;;;;8.00;4.43;;;461.30;2380.80;;;;;;6093126;23;20013;-61
2023/11/15 11:19:17;;;;;;;12.18;6.57;;;461.30;2380.80;;;;;;6093120;23;20438;-62
2023/11/15 11:22:04;;;;;;;10.35;5.07;;;461.70;2380.80;;;;;;6091764;23;20019;-62
2023/11/15 11:24:39;;;;;;;11.48;5.50;;;461.40;2380.80;;;;;;6092105;23;20365;-61
2023/11/15 11:27:05;;;;;;;;;;;;;;;;;;6093540;23;20032;-60
2023/11/15 11:29:33;;;;;;;6.93;5.15;;;;;;;;;;6095581;23;20218;-61
2023/11/15 11:32:34;;;;;;;5.50;3.00;;;487.00;2380.80;;;;;;6097065;23;20041;-63
2023/11/15 11:35:13;;;;;;;3.92;2.20;;;487.10;2380.80;;;;;;6099001;23;20377;-62
2023/11/15 11:37:55;;;;;;;2.17;1.42;;;512.20;2380.80;;;;;;6098179;23;20400;-62
2023/11/15 11:40:28;;;;;;;4.75;2.38;;;512.60;2380.80;;;;;;6097681;23;20004;-63
2023/11/15 11:43:15;;;;;;;3.60;1.75;;;512.50;2355.20;;;;;;6097363;23;20467;-65
2023/11/15 11:45:43;;;;;;;6.05;2.20;;;487.00;2304.00;;;;;;6098262;23;20054;-64
2023/11/15 11:48:26;;;;;;;4.40;2.17;;;486.70;2380.80;;;;;;6173699;23;20412;-65
2023/11/15 11:51:00;;;;;;;5.97;3.03;;;486.90;2380.80;;;;;;6248681;23;20437;-66
2023/11/15 11:53:28;;;;;;;;;;;;;;;;;;6222062;23;20321;-64
2023/11/15 11:55:55;;;;;;;2.78;2.10;;;;;;;;;;6248899;23;20304;-65
2023/11/15 11:58:27;;;;;;;3.15;1.70;;;486.70;2380.80;;;;;;6248655;23;20436;-64
2023/11/15 12:01:19;;;;;;;2.05;1.50;;;512.00;2380.80;;;;;;6249389;23;20405;-65
2023/11/15 12:03:47;;;;;;;1.63;1.00;;;512.30;2227.20;;;;;;6242763;23;20448;-66
2023/11/15 12:06:14;;;;;;;6.82;3.13;;;512.00;2073.60;;;;;;6249555;23;20420;-65
2023/11/15 12:08:46;;;;;;;2.55;1.10;;;486.60;2201.60;;;;;;6247977;23;20439;-65
2023/11/15 12:11:17;;;;;;;6.93;3.38;;;461.40;2278.40;;;;;;6248176;23;20440;-65